Time;durP1;ratioP1;P1;durP2;ratioP2;P2;SDS_P1;SDS_P2;PMS_P1;PMS_P2;Temp;Humidity;BMP_temperature;BMP_pressure;BME280_temperature;BME280_humidity;BME280_pressure;Samples;Min_cycle;Max_cycle;Signal;HPM_P1;HPM_P2
2024/02/01 00:00:31;;;;;;;20.00;13.15;;;;;;;-1.74;100.00;100639.03;5062322;28;20037;-73
2024/02/01 00:02:57;;;;;;;21.30;13.10;;;;;;;-0.49;100.00;100919.88;5055906;28;20086;-72
2024/02/01 00:05:22;;;;;;;19.80;12.90;;;;;;;-1.42;100.00;100854.41;5057976;28;20474;-74
2024/02/01 00:07:48;;;;;;;23.05;14.45;;;;;;;-1.21;100.00;100882.59;5061707;28;20032;-71
2024/02/01 00:10:14;;;;;;;23.35;14.57;;;;;;;-0.80;100.00;100976.25;5059346;28;20033;-71
2024/02/01 00:12:39;;;;;;;21.63;13.85;;;;;;;-1.23;100.00;100755.34;5062800;28;20028;-71
2024/02/01 00:15:05;;;;;;;24.40;15.98;;;;;;;-0.27;100.00;100857.31;5061960;28;20100;-71
2024/02/01 00:17:30;;;;;;;30.58;17.90;;;;;;;-0.49;100.00;100914.88;5058566;28;20029;-72
2024/02/01 00:19:56;;;;;;;24.95;15.55;;;;;;;-0.60;100.00;100981.13;5062875;28;20116;-71
2024/02/01 00:22:21;;;;;;;23.15;15.45;;;;;;;-1.44;100.00;100890.91;5062733;28;20032;-72
2024/02/01 00:24:49;;;;;;;30.15;17.73;;;;;;;-1.26;100.00;100824.22;5055089;28;20071;-72
2024/02/01 00:27:15;;;;;;;27.95;17.25;;;;;;;-0.54;100.00;100896.44;5059696;28;20111;-73
2024/02/01 00:29:41;;;;;;;33.28;18.35;;;;;;;-0.22;100.00;100885.75;5058067;28;20112;-72
2024/02/01 00:32:06;;;;;;;31.67;19.10;;;;;;;-1.00;100.00;101036.31;5059550;28;20033;-72
2024/02/01 00:34:33;;;;;;;29.83;18.02;;;;;;;-0.77;100.00;100997.16;5053830;28;20418;-72
2024/02/01 00:36:58;;;;;;;29.17;17.55;;;;;;;-0.92;100.00;101046.56;5057722;28;20029;-73
2024/02/01 00:39:24;;;;;;;26.55;15.55;;;;;;;-1.36;100.00;101092.31;5060368;28;20160;-72
2024/02/01 00:41:50;;;;;;;24.08;15.35;;;;;;;-1.89;100.00;101142.59;5057316;28;20044;-72
2024/02/01 00:44:15;;;;;;;29.80;16.65;;;;;;;-2.30;100.00;101042.97;5062373;28;20134;-72
2024/02/01 00:46:41;;;;;;;35.35;20.02;;;;;;;-2.03;100.00;101133.69;5060743;28;20543;-72
2024/02/01 00:49:06;;;;;;;38.33;19.88;;;;;;;-2.24;100.00;101030.72;5055910;28;20021;-71
2024/02/01 00:51:32;;;;;;;31.90;17.38;;;;;;;-1.97;100.00;101101.56;5058211;28;20024;-71
2024/02/01 00:53:57;;;;;;;28.40;16.15;;;;;;;-2.99;100.00;100963.78;5058556;28;20033;-72
2024/02/01 00:56:23;;;;;;;51.05;25.00;;;;;;;-2.52;100.00;101070.25;5059841;28;20032;-72
2024/02/01 00:58:48;;;;;;;61.03;27.13;;;;;;;-2.53;100.00;101118.28;5058543;28;20040;-71
2024/02/01 01:01:14;;;;;;;45.90;23.73;;;;;;;-2.36;100.00;101082.53;5054091;28;20098;-72
2024/02/01 01:03:39;;;;;;;61.78;27.60;;;;;;;-2.60;100.00;100996.06;5058620;28;20406;-72
2024/02/01 01:06:05;;;;;;;79.75;36.75;;;;;;;-2.73;100.00;100885.25;5054577;28;20431;-72
2024/02/01 01:08:30;;;;;;;76.78;33.78;;;;;;;-2.89;100.00;100901.19;5051510;28;20068;-71
2024/02/01 01:10:56;;;;;;;58.15;27.33;;;;;;;-2.91;100.00;100867.13;5052744;28;20482;-71
2024/02/01 01:13:21;;;;;;;35.65;18.13;;;;;;;-2.61;100.00;100900.66;5059864;28;20029;-71
2024/02/01 01:15:47;;;;;;;30.05;15.10;;;;;;;-3.17;100.00;100905.81;5058605;28;20037;-72
2024/02/01 01:18:13;;;;;;;26.92;14.35;;;;;;;-2.82;100.00;101037.47;5057164;28;20040;-71
2024/02/01 01:20:39;;;;;;;22.27;13.40;;;;;;;-3.03;100.00;101087.91;5057264;28;20032;-72
2024/02/01 01:23:04;;;;;;;24.95;13.93;;;;;;;-3.85;100.00;101019.59;5060828;28;20032;-75
2024/02/01 01:25:30;;;;;;;23.05;13.60;;;;;;;-3.08;100.00;101042.09;5057917;28;20113;-72
2024/02/01 01:27:55;;;;;;;21.73;13.45;;;;;;;-3.16;100.00;101085.66;5054902;28;20037;-72
2024/02/01 01:30:21;;;;;;;25.83;13.43;;;;;;;-3.30;100.00;100970.72;5058720;28;20051;-72
2024/02/01 01:32:46;;;;;;;24.58;15.38;;;;;;;-3.87;100.00;100906.94;5054277;28;20044;-72
2024/02/01 01:35:12;;;;;;;24.23;14.50;;;;;;;-4.06;100.00;100896.13;5056104;28;20137;-71
2024/02/01 01:37:37;;;;;;;25.38;15.10;;;;;;;-2.98;100.00;100944.72;5057517;28;20055;-71
2024/02/01 01:40:04;;;;;;;26.38;15.18;;;;;;;-3.01;100.00;100917.28;5060998;28;20024;-72
2024/02/01 01:42:29;;;;;;;25.40;14.60;;;;;;;-2.77;100.00;100895.84;5060027;28;20036;-72
2024/02/01 01:44:55;;;;;;;58.03;31.95;;;;;;;-3.01;100.00;100945.44;5059751;28;20490;-72
2024/02/01 01:47:20;;;;;;;44.28;26.65;;;;;;;-3.92;100.00;100930.69;5060564;28;20036;-72
2024/02/01 01:49:46;;;;;;;35.10;20.52;;;;;;;-3.53;100.00;101031.81;5061715;28;20124;-72
2024/02/01 01:52:14;;;;;;;31.23;18.83;;;;;;;-3.14;100.00;100923.38;5058644;28;20407;-73
2024/02/01 01:54:40;;;;;;;26.65;15.07;;;;;;;-3.30;100.00;100766.94;5066898;28;20491;-73
2024/02/01 01:57:05;;;;;;;23.83;14.30;;;;;;;-2.51;100.00;100788.25;5063773;28;20470;-72
2024/02/01 01:59:32;;;;;;;23.33;13.93;;;;;;;-2.58;100.00;100768.94;5058678;28;20106;-72
2024/02/01 02:01:59;;;;;;;25.77;14.68;;;;;;;-3.23;100.00;100679.44;5068399;28;20067;-71
2024/02/01 02:04:24;;;;;;;24.27;14.32;;;;;;;-2.79;100.00;100803.78;5064031;28;20480;-72
2024/02/01 02:06:55;;;;;;;23.88;13.40;;;;;;;-2.75;100.00;100812.19;5056604;28;20028;-72
2024/02/01 02:09:22;;;;;;;24.20;13.73;;;;;;;-2.64;100.00;100691.56;5057555;28;20403;-74
2024/02/01 02:11:47;;;;;;;25.55;14.88;;;;;;;-2.53;100.00;100776.53;5060541;28;20267;-71
2024/02/01 02:14:15;;;;;;;23.13;14.20;;;;;;;-2.74;100.00;100622.38;5063371;28;20025;-72
2024/02/01 02:16:41;;;;;;;26.70;15.70;;;;;;;-2.54;100.00;100768.25;5057605;28;20093;-70
2024/02/01 02:19:09;;;;;;;24.65;14.60;;;;;;;-2.84;100.00;100782.00;5062860;28;20052;-71
2024/02/01 02:21:55;;;;;;;27.73;15.30;;;;;;;-2.39;100.00;100772.91;5059711;28;20120;-71
2024/02/01 02:24:20;;;;;;;27.55;16.83;;;;;;;-3.54;100.00;100719.63;5054653;28;20044;-71
2024/02/01 02:26:47;;;;;;;29.85;17.23;;;;;;;-3.17;100.00;100733.50;5055355;28;20033;-71
2024/02/01 02:29:16;;;;;;;30.50;16.80;;;;;;;-2.72;100.00;100837.22;5064337;28;20521;-71
2024/02/01 02:31:49;;;;;;;27.40;16.45;;;;;;;-2.59;100.00;100803.72;5059050;28;20111;-71
2024/02/01 02:34:15;;;;;;;25.83;15.60;;;;;;;-2.47;100.00;100765.19;5063683;28;20056;-71
2024/02/01 02:36:40;;;;;;;25.88;15.05;;;;;;;-3.04;100.00;100633.72;5059476;28;20490;-72
2024/02/01 02:39:17;;;;;;;25.98;15.55;;;;;;;-2.97;100.00;100742.56;5058113;28;20032;-71
2024/02/01 02:41:43;;;;;;;26.20;15.55;;;;;;;-2.50;100.00;100712.81;5061492;28;20502;-71
2024/02/01 02:44:10;;;;;;;28.05;15.43;;;;;;;-2.43;100.00;100687.34;5058958;28;20040;-71
2024/02/01 02:46:36;;;;;;;34.38;19.60;;;;;;;-2.00;100.00;100600.84;5058562;28;20032;-72
2024/02/01 02:49:02;;;;;;;35.72;21.35;;;;;;;-2.33;100.00;100693.50;5057283;28;20086;-72
2024/02/01 02:51:27;;;;;;;30.92;18.30;;;;;;;-2.66;100.00;100504.97;5059424;28;20104;-71
2024/02/01 02:53:53;;;;;;;30.55;17.42;;;;;;;-2.04;100.00;100621.47;5059730;28;20130;-72
2024/02/01 02:56:20;;;;;;;29.38;17.63;;;;;;;-2.40;100.00;100704.03;5060308;28;20044;-71
2024/02/01 02:58:46;;;;;;;30.50;18.33;;;;;;;-3.16;100.00;100668.06;5053434;28;20048;-72
2024/02/01 03:01:11;;;;;;;29.70;17.58;;;;;;;-3.27;100.00;100783.63;5061490;28;20129;-73
2024/02/01 03:03:40;;;;;;;28.77;16.88;;;;;;;-2.36;100.00;100693.41;5058196;28;20035;-72
2024/02/01 03:06:10;;;;;;;34.17;19.42;;;;;;;-2.54;100.00;100732.56;5063654;28;20087;-71
2024/02/01 03:08:42;;;;;;;38.10;22.08;;;;;;;-2.72;100.00;100760.09;5071783;28;20488;-71
2024/02/01 03:11:10;;;;;;;44.10;24.70;;;;;;;-2.97;100.00;100802.25;5063133;28;20016;-71
2024/02/01 03:13:40;;;;;;;42.78;24.67;;;;;;;-2.61;100.00;100738.13;5075034;28;20059;-72
2024/02/01 03:16:17;;;;;;;44.70;25.17;;;;;;;-3.18;100.00;100642.31;5067826;28;20035;-72
2024/02/01 03:18:44;;;;;;;45.10;25.02;;;;;;;-3.82;100.00;100567.84;5057502;28;20086;-71
2024/02/01 03:21:11;;;;;;;42.72;24.00;;;;;;;-3.41;100.00;100692.78;5058309;28;20094;-72
2024/02/01 03:23:36;;;;;;;45.13;25.30;;;;;;;-2.94;100.00;100772.50;5058749;28;20087;-71
2024/02/01 03:26:02;;;;;;;46.08;25.92;;;;;;;-2.28;100.00;100627.31;5058122;28;20034;-72
2024/02/01 03:28:30;;;;;;;43.70;24.75;;;;;;;-2.33;100.00;100669.44;5058489;28;20043;-72
2024/02/01 03:30:56;;;;;;;39.38;23.25;;;;;;;-3.12;100.00;100567.97;5057439;28;20068;-71
2024/02/01 03:33:22;;;;;;;37.67;23.05;;;;;;;-2.53;100.00;100508.69;5058669;28;20033;-71
2024/02/01 03:35:49;;;;;;;40.15;23.70;;;;;;;-3.17;100.00;100616.69;5057155;28;20024;-72
2024/02/01 03:38:15;;;;;;;44.38;23.88;;;;;;;-2.61;100.00;100713.25;5058014;28;20121;-72
2024/02/01 03:40:41;;;;;;;44.72;23.10;;;;;;;-2.99;100.00;100824.53;5058678;28;20032;-71
2024/02/01 03:43:07;;;;;;;45.13;24.10;;;;;;;-3.98;100.00;100596.97;5059088;28;20563;-73
2024/02/01 03:45:33;;;;;;;41.75;23.92;;;;;;;-2.92;100.00;100810.72;5056438;28;20033;-71
2024/02/01 03:47:58;;;;;;;40.88;23.00;;;;;;;-4.14;100.00;100769.19;5063653;28;20037;-72
2024/02/01 03:50:24;;;;;;;37.83;22.95;;;;;;;-4.37;100.00;100745.03;5059855;28;20406;-71
2024/02/01 03:52:49;;;;;;;35.75;20.33;;;;;;;-3.92;100.00;100938.16;5063124;28;20246;-71
2024/02/01 03:55:16;;;;;;;39.70;20.38;;;;;;;-5.24;100.00;100734.44;5059524;28;20132;-72
2024/02/01 03:57:47;;;;;;;39.17;21.77;;;;;;;-4.14;100.00;100942.91;5058105;28;20027;-75
2024/02/01 04:00:28;;;;;;;40.72;22.70;;;;;;;-3.89;100.00;100850.56;5055472;28;20029;-72
2024/02/01 04:02:58;;;;;;;46.72;20.77;;;;;;;-4.70;100.00;100734.50;5057080;28;20114;-73
2024/02/01 04:05:27;;;;;;;34.55;19.05;;;;;;;-4.15;100.00;100643.44;5056163;28;20509;-73
2024/02/01 04:07:56;;;;;;;31.27;17.42;;;;;;;-4.24;100.00;100794.44;5053873;28;20044;-73
2024/02/01 04:10:22;;;;;;;32.40;16.10;;;;;;;-3.87;100.00;100729.81;5053406;28;20044;-74
2024/02/01 04:12:48;;;;;;;28.42;15.70;;;;;;;-4.16;100.00;100596.25;5056262;28;20029;-73
2024/02/01 04:15:13;;;;;;;24.10;14.40;;;;;;;-3.77;100.00;100581.28;5057665;28;20115;-74
2024/02/01 04:17:39;;;;;;;24.35;14.57;;;;;;;-3.59;100.00;100636.63;5056769;28;20107;-71
2024/02/01 04:20:05;;;;;;;25.92;14.52;;;;;;;-3.90;100.00;100606.41;5058066;28;20111;-72
2024/02/01 04:22:34;;;;;;;28.23;15.93;;;;;;;-4.25;100.00;100532.19;5056594;28;20145;-71
2024/02/01 04:24:59;;;;;;;28.00;14.73;;;;;;;-4.22;100.00;100650.56;5060989;28;20040;-71
2024/02/01 04:27:25;;;;;;;25.17;14.98;;;;;;;-3.85;100.00;100361.69;5060078;28;20025;-71
2024/02/01 04:29:50;;;;;;;27.13;15.52;;;;;;;-3.39;100.00;100520.63;5050368;28;20024;-71
2024/02/01 04:32:16;;;;;;;26.33;15.30;;;;;;;-3.39;100.00;100539.63;5050864;28;20041;-72
2024/02/01 04:34:41;;;;;;;29.35;15.60;;;;;;;-3.39;100.00;100505.72;5052090;28;20040;-71
2024/02/01 04:37:07;;;;;;;24.65;15.23;;;;;;;-3.28;100.00;100559.13;5052463;28;20040;-71
2024/02/01 04:39:33;;;;;;;32.05;17.13;;;;;;;-3.60;100.00;100576.94;5050090;28;20029;-73
2024/02/01 04:42:14;;;;;;;31.02;16.88;;;;;;;-3.91;100.00;100418.56;5052521;28;20419;-72
2024/02/01 04:44:41;;;;;;;66.45;34.88;;;;;;;-3.35;100.00;100419.69;5053151;28;20755;-71
2024/02/01 04:47:08;;;;;;;70.43;35.53;;;;;;;-2.94;100.00;100461.72;5052062;28;20037;-72
2024/02/01 04:49:34;;;;;;;51.10;28.17;;;;;;;-3.54;100.00;100334.63;5052240;28;20025;-73
2024/02/01 04:52:00;;;;;;;43.95;23.48;;;;;;;-2.89;100.00;100380.63;5053379;28;20036;-72
2024/02/01 04:54:27;;;;;;;66.55;35.28;;;;;;;-3.28;100.00;100516.88;5048610;28;20045;-71
2024/02/01 04:56:54;;;;;;;78.60;40.20;;;;;;;-3.64;100.00;100342.56;5050542;28;20112;-75
2024/02/01 04:59:20;;;;;;;76.53;40.13;;;;;;;-3.48;100.00;100331.50;5051253;28;20032;-73
2024/02/01 05:01:46;;;;;;;102.13;47.03;;;;;;;-4.17;100.00;100492.81;5050139;28;20029;-72
2024/02/01 05:04:13;;;;;;;217.52;108.45;;;;;;;-4.30;100.00;100513.81;5053938;28;20044;-74
2024/02/01 05:06:42;;;;;;;177.07;89.75;;;;;;;-4.23;100.00;100481.00;5046844;28;20028;-71
2024/02/01 05:09:23;;;;;;;112.32;53.53;;;;;;;-2.26;100.00;100366.84;5047943;28;20033;-73
2024/02/01 05:11:55;;;;;;;120.13;56.53;;;;;;;-3.83;100.00;100561.19;5052830;28;20061;-72
2024/02/01 05:14:21;;;;;;;77.25;43.03;;;;;;;-4.73;100.00;100402.16;5051650;28;20037;-73
2024/02/01 05:16:49;;;;;;;74.65;42.55;;;;;;;-3.33;100.00;100585.44;5050456;28;20120;-72
2024/02/01 05:19:14;;;;;;;88.07;52.28;;;;;;;-3.55;100.00;100563.06;5049186;28;20427;-71
2024/02/01 05:21:40;;;;;;;61.03;37.92;;;;;;;-3.32;100.00;100484.41;5051857;28;20061;-72
2024/02/01 05:24:08;;;;;;;53.38;31.67;;;;;;;-3.42;100.00;100562.72;5053629;28;20052;-70
2024/02/01 05:26:37;;;;;;;51.42;29.70;;;;;;;-4.31;100.00;100593.97;5052420;28;20025;-71
2024/02/01 05:29:03;;;;;;;48.58;29.10;;;;;;;-3.55;100.00;100654.97;5052472;28;20037;-72
2024/02/01 05:31:29;;;;;;;51.15;30.17;;;;;;;-4.25;100.00;100526.38;5055075;28;20032;-73
2024/02/01 05:33:54;;;;;;;51.33;30.65;;;;;;;-3.28;100.00;100369.41;5054471;28;20617;-72
2024/02/01 05:36:20;;;;;;;49.40;30.42;;;;;;;-3.35;100.00;100604.41;5054475;28;20127;-73
2024/02/01 05:38:46;;;;;;;51.80;27.70;;;;;;;-3.98;100.00;100510.13;5052941;28;20033;-71
2024/02/01 05:41:12;;;;;;;42.10;26.30;;;;;;;-2.99;100.00;100526.19;5062120;28;20079;-71
2024/02/01 05:43:38;;;;;;;43.50;25.90;;;;;;;-3.19;100.00;100583.47;5058671;28;20108;-72
2024/02/01 05:46:14;;;;;;;49.15;25.88;;;;;;;-2.12;100.00;100187.19;5057051;28;20631;-72
2024/02/01 05:48:45;;;;;;;69.18;39.97;;;;;;;-2.61;100.00;100452.03;5064591;28;20025;-74
2024/02/01 05:51:10;;;;;;;71.32;40.83;;;;;;;-3.55;100.00;100423.97;5062174;28;20528;-74
2024/02/01 05:53:38;;;;;;;83.43;46.15;;;;;;;-3.70;100.00;100483.03;5063087;28;20182;-73
2024/02/01 05:56:04;;;;;;;85.10;46.40;;;;;;;-3.28;100.00;100606.31;5058815;28;20124;-73
2024/02/01 05:58:29;;;;;;;87.00;48.78;;;;;;;-4.22;100.00;100593.50;5061406;28;20033;-72
2024/02/01 06:00:57;;;;;;;87.28;47.22;;;;;;;-3.96;100.00;100670.69;5057657;28;20025;-74
2024/02/01 06:03:23;;;;;;;90.82;50.55;;;;;;;-3.40;100.00;100374.81;5066881;28;20035;-76
2024/02/01 06:05:49;;;;;;;77.50;44.90;;;;;;;-1.04;100.00;100213.91;5081472;28;20406;-72
2024/02/01 06:08:15;;;;;;;64.72;37.83;;;;;;;-0.81;100.00;100274.25;5060087;28;20033;-72
2024/02/01 06:10:41;;;;;;;61.40;35.65;;;;;;;0.09;100.00;99989.59;5060295;28;20553;-73
2024/02/01 06:13:06;;;;;;;44.67;25.70;;;;;;;-0.36;100.00;100053.03;5063165;28;20071;-74
2024/02/01 06:15:35;;;;;;;39.33;23.90;;;;;;;1.02;100.00;100054.97;5060370;28;20028;-73
2024/02/01 06:18:00;;;;;;;42.45;25.42;;;;;;;0.56;100.00;100293.63;5058527;28;22069;-75
2024/02/01 06:20:26;;;;;;;39.50;23.63;;;;;;;1.69;100.00;100243.56;5063503;28;20021;-74
2024/02/01 06:22:51;;;;;;;36.00;22.48;;;;;;;2.29;100.00;100214.94;5061701;28;20040;-74
2024/02/01 06:25:17;;;;;;;39.17;23.65;;;;;;;2.55;100.00;100088.91;5062436;28;20033;-74
2024/02/01 06:27:43;;;;;;;68.93;37.53;;;;;;;2.56;100.00;100230.19;5061354;28;20036;-75
2024/02/01 06:30:10;;;;;;;63.78;33.70;;;;;;;3.47;100.00;100422.56;5058904;28;20030;-74
2024/02/01 06:32:36;;;;;;;54.80;31.02;;;;;;;2.25;100.00;100366.19;5054613;28;20037;-74
2024/02/01 06:35:16;;;;;;;60.33;38.05;;;;;;;4.00;100.00;100588.94;5060343;28;20510;-74
2024/02/01 06:37:42;;;;;;;50.88;34.35;;;;;;;3.44;100.00;100528.09;5059308;28;20042;-74
2024/02/01 06:43:27;;;;;;;54.63;33.70;;;;;;;3.25;100.00;100733.06;5048901;28;20033;-74
2024/02/01 06:46:18;;;;;;;62.28;40.60;;;;;;;4.54;100.00;100908.16;5049322;28;20029;-77
2024/02/01 06:48:46;;;;;;;52.03;33.50;;;;;;;4.55;100.00;101008.06;5054069;28;21570;-76
2024/02/01 06:51:21;;;;;;;46.05;28.83;;;;;;;3.87;100.00;100971.88;5063071;28;20490;-75
2024/02/01 06:53:57;;;;;;;45.35;29.02;;;;;;;3.86;100.00;100996.19;5062013;28;20028;-74
2024/02/01 06:59:29;;;;;;;74.20;50.28;;;;;;;3.30;100.00;101379.69;5058466;28;20515;-74
2024/02/01 07:02:03;;;;;;;77.20;44.55;;;;;;;3.16;100.00;101423.72;5067610;28;20029;-72
2024/02/01 07:04:41;;;;;;;71.97;44.70;;;;;;;1.83;100.00;101601.25;5059436;28;20029;-74
2024/02/01 07:07:18;;;;;;;77.43;47.08;;;;;;;1.32;100.00;101423.38;5061085;28;20035;-74
2024/02/01 07:09:57;;;;;;;47.28;32.78;;;;;;;1.42;100.00;101332.69;5056194;28;20120;-74
2024/02/01 07:12:42;;;;;;;58.67;38.85;;;;;;;2.07;100.00;101276.06;5061467;28;20085;-74
2024/02/01 07:17:59;;;;;;;41.15;29.42;;;;;;;2.16;100.00;101313.97;5056060;28;20036;-74
2024/02/01 07:23:37;;;;;;;57.58;41.88;;;;;;;1.87;100.00;101319.78;5023867;28;20042;-75
2024/02/01 07:26:16;;;;;;;33.10;22.90;;;;;;;1.60;100.00;101134.44;5004006;28;20034;-73
2024/02/01 07:58:52;;;;;;;48.90;32.47;;;;;;;2.63;100.00;100944.59;5056249;28;20048;-73
2024/02/01 08:01:18;;;;;;;55.47;37.15;;;;;;;2.45;100.00;100935.06;5052836;28;20511;-74
2024/02/01 08:07:44;;;;;;;62.60;39.00;;;;;;;2.50;100.00;100986.16;5063857;28;20048;-73
2024/02/01 08:09:14;;;;;;;68.93;42.90;;;;;;;1.66;100.00;100876.53;5059068;28;20040;-73
2024/02/01 08:11:41;;;;;;;64.13;40.65;;;;;;;2.52;100.00;100923.47;5061094;28;20037;-73
2024/02/01 08:14:11;;;;;;;53.88;35.53;;;;;;;2.25;100.00;100983.09;5060543;28;20032;-72
2024/02/01 08:16:39;;;;;;;52.85;34.58;;;;;;;2.49;100.00;100923.41;5060400;28;20040;-73
2024/02/01 08:19:06;;;;;;;46.17;30.92;;;;;;;2.69;100.00;100873.59;5055945;28;20025;-73
2024/02/01 08:21:37;;;;;;;47.70;32.72;;;;;;;2.58;100.00;100926.94;5060134;28;20025;-73
2024/02/01 08:24:05;;;;;;;41.10;29.05;;;;;;;1.17;100.00;100993.88;5062094;28;20033;-74
2024/02/01 08:26:37;;;;;;;39.85;25.70;;;;;;;2.58;100.00;100851.66;5057394;28;20032;-73
2024/02/01 08:29:06;;;;;;;35.55;24.50;;;;;;;2.64;100.00;100810.75;5059181;28;20028;-77
2024/02/01 08:31:36;;;;;;;33.13;22.38;;;;;;;1.66;100.00;100821.41;5056913;28;20075;-75
2024/02/01 08:34:05;;;;;;;34.35;22.70;;;;;;;2.72;100.00;100810.88;5055477;28;20028;-74
2024/02/01 08:36:31;;;;;;;40.33;25.38;;;;;;;2.82;100.00;100840.34;5057251;28;20059;-73
2024/02/01 08:38:59;;;;;;;41.45;28.70;;;;;;;2.42;100.00;100856.34;5058170;28;20028;-74
2024/02/01 08:41:26;;;;;;;40.33;29.23;;;;;;;2.23;100.00;100851.81;5058093;28;20415;-74
2024/02/01 08:43:51;;;;;;;39.47;28.40;;;;;;;2.16;100.00;100769.78;5060044;28;20040;-74
2024/02/01 08:46:22;;;;;;;43.03;28.50;;;;;;;2.72;100.00;100647.75;5052650;28;20029;-73
2024/02/01 08:48:49;;;;;;;38.05;24.88;;;;;;;1.54;100.00;100678.34;5055006;28;20040;-74
2024/02/01 08:51:17;;;;;;;38.22;24.02;;;;;;;0.78;100.00;100654.25;5057973;28;20039;-73
2024/02/01 08:53:43;;;;;;;35.00;23.05;;;;;;;2.08;100.00;100538.13;5053844;28;20089;-75
2024/02/01 08:56:08;;;;;;;32.08;21.65;;;;;;;2.23;100.00;100766.53;5068446;28;20045;-73
2024/02/01 08:58:38;;;;;;;31.13;20.83;;;;;;;2.45;100.00;100460.91;5065385;28;20029;-73
2024/02/01 09:01:04;;;;;;;29.85;20.33;;;;;;;2.36;100.00;100716.63;5062283;28;20116;-73
2024/02/01 09:03:32;;;;;;;34.20;22.88;;;;;;;2.63;100.00;100432.69;5064431;28;20115;-74
2024/02/01 09:06:08;;;;;;;28.10;18.88;;;;;;;3.32;100.00;100561.50;5060045;28;20465;-74
2024/02/01 09:08:39;;;;;;;28.10;18.52;;;;;;;1.88;100.00;100542.00;5057374;28;20090;-73
2024/02/01 09:11:12;;;;;;;25.10;16.92;;;;;;;2.69;100.00;100628.50;5064186;28;20483;-72
2024/02/01 09:13:45;;;;;;;23.55;16.00;;;;;;;2.16;100.00;100541.59;5060713;28;20028;-73
2024/02/01 09:16:11;;;;;;;29.13;17.70;;;;;;;2.84;100.00;100575.97;5063081;28;20032;-73
2024/02/01 09:18:37;;;;;;;30.08;18.70;;;;;;;3.38;100.00;100543.97;5059167;28;20104;-74
2024/02/01 09:21:03;;;;;;;22.67;16.13;;;;;;;4.07;100.00;100452.31;5062486;28;20544;-74
2024/02/01 09:23:28;;;;;;;26.40;16.58;;;;;;;4.22;100.00;100472.53;5065377;28;20059;-74
2024/02/01 09:25:54;;;;;;;27.60;16.92;;;;;;;3.39;100.00;100625.19;5060196;28;20029;-74
2024/02/01 09:28:19;;;;;;;26.63;16.70;;;;;;;3.96;100.00;100531.91;5062324;28;20517;-74
2024/02/01 09:30:47;;;;;;;27.40;17.08;;;;;;;3.62;100.00;100605.34;5063561;28;20032;-74
2024/02/01 09:33:20;;;;;;;28.73;17.67;;;;;;;4.34;100.00;100437.34;5058673;28;20116;-74
2024/02/01 09:35:48;;;;;;;27.58;17.13;;;;;;;4.31;100.00;100306.50;5061869;28;20040;-74
2024/02/01 09:38:13;;;;;;;31.90;20.38;;;;;;;3.76;100.00;100533.41;5060372;28;20032;-73
2024/02/01 09:40:41;;;;;;;35.13;23.90;;;;;;;4.28;100.00;100472.56;5062202;28;20035;-74
2024/02/01 09:43:21;;;;;;;33.45;22.10;;;;;;;4.59;100.00;100491.16;5057959;28;20120;-73
2024/02/01 09:45:49;;;;;;;24.45;16.17;;;;;;;3.68;100.00;100518.28;5063287;28;20109;-75
2024/02/01 09:48:16;;;;;;;23.30;16.63;;;;;;;3.72;100.00;100468.84;5062033;28;20032;-76
2024/02/01 09:51:17;;;;;;;23.00;16.23;;;;;;;4.68;100.00;100513.84;5062263;28;20564;-73
2024/02/01 09:53:45;;;;;;;18.65;14.48;;;;;;;5.12;100.00;100488.00;5057382;28;20394;-74
2024/02/01 09:56:12;;;;;;;23.30;16.20;;;;;;;5.04;100.00;100524.06;5063303;28;20491;-74
2024/02/01 09:58:39;;;;;;;23.48;15.77;;;;;;;5.11;100.00;100524.09;5062792;28;20099;-73
2024/02/01 10:01:05;;;;;;;24.85;16.00;;;;;;;4.55;100.00;100439.13;5057866;28;20028;-73
2024/02/01 10:03:30;;;;;;;22.90;15.85;;;;;;;5.57;100.00;100519.13;5061423;28;20416;-76
2024/02/01 10:05:56;;;;;;;26.88;17.10;;;;;;;5.84;100.00;100492.25;5059280;28;20103;-74
2024/02/01 10:08:25;;;;;;;23.40;15.07;;;;;;;4.95;100.00;100502.22;5064525;28;20060;-74
2024/02/01 10:10:51;;;;;;;47.38;26.13;;;;;;;5.70;100.00;100572.13;5062152;28;20085;-74
2024/02/01 10:13:18;;;;;;;28.63;19.17;;;;;;;5.52;100.00;100388.03;5060618;28;20041;-74
2024/02/01 10:15:48;;;;;;;15.93;11.60;;;;;;;5.26;100.00;100503.97;4713100;28;9999711;-76
2024/02/01 10:18:14;;;;;;;16.85;11.05;;;;;;;5.77;100.00;100671.31;5059251;28;20115;-74
2024/02/01 10:20:48;;;;;;;15.68;10.63;;;;;;;4.93;100.00;100612.19;5063683;28;20032;-75
2024/02/01 10:23:13;;;;;;;16.75;12.73;;;;;;;5.49;100.00;100488.03;5059386;28;20036;-73
2024/02/01 10:25:42;;;;;;;16.25;11.70;;;;;;;5.28;100.00;100560.28;5062640;28;20044;-75
2024/02/01 10:28:08;;;;;;;15.65;10.20;;;;;;;4.65;100.00;100492.03;5059633;28;20610;-75
2024/02/01 10:30:45;;;;;;;17.98;12.38;;;;;;;6.11;100.00;100623.47;5058407;28;20464;-76
2024/02/01 10:33:18;;;;;;;15.07;11.18;;;;;;;6.03;100.00;100680.69;5056408;28;20032;-76
2024/02/01 10:35:51;;;;;;;16.15;10.35;;;;;;;4.98;100.00;100604.66;5052004;28;20506;-74
2024/02/01 10:38:23;;;;;;;22.65;15.07;;;;;;;6.83;100.00;100531.56;5058120;28;20605;-74
2024/02/01 10:40:58;;;;;;;18.95;12.52;;;;;;;6.67;100.00;100651.25;5060578;28;20081;-75
2024/02/01 10:43:29;;;;;;;14.48;10.57;;;;;;;6.68;100.00;100652.91;5057744;28;20033;-73
2024/02/01 10:46:07;;;;;;;16.20;10.70;;;;;;;6.75;100.00;100529.94;5042827;28;20029;-74
2024/02/01 10:48:46;;;;;;;18.00;11.32;;;;;;;7.79;100.00;100504.00;5056832;28;20028;-75
2024/02/01 10:51:12;;;;;;;17.05;12.07;;;;;;;6.31;100.00;100526.69;5062988;28;20036;-74
2024/02/01 10:53:43;;;;;;;15.10;10.93;;;;;;;7.77;100.00;100572.38;5062149;28;20474;-75
2024/02/01 10:56:14;;;;;;;14.75;10.35;;;;;;;7.70;100.00;100607.84;5056307;28;20049;-73
2024/02/01 10:59:07;;;;;;;18.93;10.30;;;;;;;7.74;100.00;100622.16;5057254;28;20037;-75
2024/02/01 11:01:33;;;;;;;17.17;10.75;;;;;;;6.44;100.00;100632.72;5057561;28;20123;-75
2024/02/01 11:04:01;;;;;;;20.90;14.68;;;;;;;7.19;100.00;100740.41;5063078;28;20435;-74
2024/02/01 11:06:29;;;;;;;15.20;10.40;;;;;;;7.13;100.00;100720.19;5056704;28;20560;-73
2024/02/01 11:08:56;;;;;;;15.90;11.15;;;;;;;7.09;100.00;100531.47;5053720;28;20126;-75
2024/02/01 11:11:35;;;;;;;18.38;10.57;;;;;;;7.68;100.00;100665.22;5054030;28;20111;-73
2024/02/01 11:14:09;;;;;;;18.02;12.20;;;;;;;7.33;100.00;100742.94;5058051;28;20124;-73
2024/02/01 11:16:42;;;;;;;21.08;10.95;;;;;;;7.42;100.00;100665.34;5058276;28;20062;-75
2024/02/01 11:19:12;;;;;;;16.92;10.40;;;;;;;7.24;100.00;100507.78;5057442;28;20040;-73
2024/02/01 11:21:52;;;;;;;16.42;10.38;;;;;;;7.92;100.00;100632.19;5059575;28;20032;-74
2024/02/01 11:24:24;;;;;;;18.05;9.90;;;;;;;7.72;100.00;100677.00;5062972;28;20037;-73
2024/02/01 11:26:54;;;;;;;15.57;11.60;;;;;;;7.70;100.00;100453.50;5060107;28;20025;-73
2024/02/01 11:29:24;;;;;;;16.52;11.68;;;;;;;7.96;100.00;100461.69;5056780;28;20091;-73
2024/02/01 11:31:57;;;;;;;13.85;9.82;;;;;;;8.38;100.00;100587.91;5058548;28;20029;-73
2024/02/01 11:34:27;;;;;;;12.55;8.80;;;;;;;7.20;100.00;100474.13;5060413;28;20032;-72
2024/02/01 11:36:53;;;;;;;26.80;17.70;;;;;;;8.33;100.00;100597.25;5060596;28;20174;-73
2024/02/01 11:39:22;;;;;;;15.13;10.07;;;;;;;7.71;100.00;100486.38;5055950;28;20036;-74
2024/02/01 11:41:49;;;;;;;19.30;12.85;;;;;;;7.94;100.00;100452.44;5059481;28;20051;-74
2024/02/01 11:44:19;;;;;;;18.23;10.13;;;;;;;8.38;100.00;100390.34;5057838;28;20171;-74
2024/02/01 11:46:45;;;;;;;15.68;9.95;;;;;;;7.78;100.00;100532.72;5056700;28;20193;-73
2024/02/01 11:49:16;;;;;;;14.88;10.40;;;;;;;8.57;100.00;100569.16;5055152;28;20037;-73
2024/02/01 11:52:13;;;;;;;14.95;10.10;;;;;;;8.56;100.00;100570.00;5056615;28;20115;-74
2024/02/01 11:54:52;;;;;;;14.45;10.52;;;;;;;8.83;100.00;100502.97;5056057;28;20468;-74